Time;durP1;ratioP1;P1;durP2;ratioP2;P2;SDS_P1;SDS_P2;PMS_P1;PMS_P2;Temp;Humidity;BMP_temperature;BMP_pressure;BME280_temperature;BME280_humidity;BME280_pressure;Samples;Min_cycle;Max_cycle;Signal;HPM_P1;HPM_P2
2024/03/14 05:31:35;;;;;;;0.10;0.10;;;9.30;87.10;;;;;;5244058;24;20463;-74
2024/03/14 05:34:01;;;;;;;0.10;0.10;;;9.30;87.20;;;;;;4863341;29;20040;-74
2024/03/14 05:36:26;;;;;;;0.22;0.10;;;9.30;87.10;;;;;;4863361;29;20022;-74
2024/03/14 05:38:52;;;;;;;0.10;0.10;;;9.20;87.20;;;;;;4863137;29;20025;-74
2024/03/14 05:41:18;;;;;;;0.00;0.00;;;9.30;87.30;;;;;;4865104;29;20054;-74
2024/03/14 05:43:45;;;;;;;0.10;0.10;;;9.20;87.30;;;;;;4862942;29;20029;-74
2024/03/14 05:46:11;;;;;;;0.10;0.10;;;9.20;87.20;;;;;;4846630;29;20026;-76
2024/03/14 05:48:36;;;;;;;0.10;0.10;;;9.20;87.30;;;;;;4846608;29;20038;-76
2024/03/14 05:51:02;;;;;;;0.10;0.10;;;9.20;87.30;;;;;;4846536;29;20550;-76
2024/03/14 05:53:31;;;;;;;0.10;0.10;;;9.20;87.30;;;;;;4846696;29;20030;-76
2024/03/14 05:55:56;;;;;;;0.10;0.10;;;9.20;87.30;;;;;;4846607;29;20462;-76
2024/03/14 05:58:22;;;;;;;0.10;0.10;;;9.20;87.20;;;;;;4846199;29;20073;-78
2024/03/14 06:00:48;;;;;;;0.10;0.10;;;9.30;87.20;;;;;;4850603;29;20064;-79
2024/03/14 06:03:13;;;;;;;0.08;0.08;;;9.30;87.10;;;;;;4863519;29;20073;-79
2024/03/14 06:05:39;;;;;;;0.10;0.10;;;9.30;87.00;;;;;;4859056;29;20030;-82
2024/03/14 06:08:05;;;;;;;0.10;0.10;;;9.40;87.00;;;;;;4848360;29;20041;-79
2024/03/14 06:10:31;;;;;;;0.10;0.10;;;9.30;86.90;;;;;;4864730;29;20025;-79
2024/03/14 06:12:56;;;;;;;0.00;0.00;;;9.30;86.80;;;;;;4847892;29;20041;-79
2024/03/14 06:15:22;;;;;;;0.10;0.10;;;9.30;86.80;;;;;;4847810;29;20022;-77
2024/03/14 06:17:51;;;;;;;0.10;0.10;;;9.30;86.90;;;;;;4846043;29;20113;-78
2024/03/14 06:20:18;;;;;;;0.10;0.10;;;9.30;87.00;;;;;;4846169;29;20022;-77
2024/03/14 06:22:44;;;;;;;0.00;0.00;;;9.30;86.90;;;;;;4843095;29;20143;-77
2024/03/14 06:25:10;;;;;;;0.10;0.10;;;9.30;86.80;;;;;;4845252;29;20135;-77
2024/03/14 06:27:39;;;;;;;0.10;0.10;;;9.30;86.90;;;;;;4848319;29;20073;-77
2024/03/14 06:30:09;;;;;;;0.10;0.10;;;9.30;86.80;;;;;;4855346;29;20021;-79
2024/03/14 06:32:36;;;;;;;0.10;0.10;;;9.30;86.80;;;;;;4827439;29;20680;-77
2024/03/14 06:35:08;;;;;;;0.10;0.10;;;9.30;86.80;;;;;;4826632;29;20026;-78
2024/03/14 06:37:35;;;;;;;0.10;0.10;;;9.30;86.90;;;;;;4827347;29;20041;-78
2024/03/14 06:40:05;;;;;;;0.10;0.10;;;9.30;87.00;;;;;;4841972;29;20030;-77
2024/03/14 06:42:32;;;;;;;0.10;0.10;;;9.40;86.80;;;;;;4829396;29;20030;-78
2024/03/14 06:44:58;;;;;;;0.10;0.10;;;9.30;86.80;;;;;;4829108;29;20036;-78
2024/03/14 06:47:24;;;;;;;0.10;0.10;;;9.40;87.00;;;;;;4828816;29;20482;-76
2024/03/14 06:49:49;;;;;;;0.10;0.10;;;9.40;86.90;;;;;;4836937;29;20058;-77
2024/03/14 06:52:15;;;;;;;0.10;0.10;;;9.50;86.70;;;;;;4844983;29;20041;-77
2024/03/14 06:54:42;;;;;;;0.10;0.10;;;9.50;86.60;;;;;;4845328;29;20471;-76
2024/03/14 06:57:09;;;;;;;0.10;0.10;;;9.60;86.50;;;;;;4814034;29;20098;-76
2024/03/14 06:59:38;;;;;;;0.10;0.10;;;9.70;86.50;;;;;;4827221;29;20031;-76
2024/03/14 07:02:04;;;;;;;0.10;0.10;;;9.70;86.20;;;;;;4827584;29;20056;-76
2024/03/14 07:04:34;;;;;;;0.10;0.10;;;9.80;86.10;;;;;;4827108;29;20455;-76
2024/03/14 07:07:03;;;;;;;0.10;0.10;;;9.90;85.90;;;;;;4811229;29;20069;-74
2024/03/14 07:09:30;;;;;;;0.10;0.10;;;10.00;85.70;;;;;;4810816;29;20502;-77
2024/03/14 07:11:56;;;;;;;0.10;0.10;;;10.20;85.30;;;;;;4827589;29;20022;-75
2024/03/14 07:14:23;;;;;;;0.10;0.10;;;10.30;84.90;;;;;;4827032;29;20044;-75
2024/03/14 07:16:49;;;;;;;0.10;0.10;;;10.40;84.60;;;;;;4827341;29;20026;-75
2024/03/14 07:19:21;;;;;;;0.10;0.10;;;10.50;84.50;;;;;;4810744;29;20038;-75
2024/03/14 07:21:50;;;;;;;0.10;0.10;;;10.60;84.10;;;;;;4827335;29;20034;-75
2024/03/14 07:24:17;;;;;;;0.10;0.10;;;10.80;83.70;;;;;;4826705;29;20062;-75
2024/03/14 07:26:43;;;;;;;0.20;0.20;;;11.20;83.00;;;;;;4828711;29;20058;-75
2024/03/14 07:29:10;;;;;;;0.10;0.10;;;11.80;81.70;;;;;;4830397;29;20036;-76
2024/03/14 07:31:35;;;;;;;0.20;0.20;;;12.40;80.00;;;;;;4829222;29;20049;-76
2024/03/14 07:34:06;;;;;;;0.10;0.10;;;12.80;79.10;;;;;;4867503;29;20040;-76
2024/03/14 07:36:32;;;;;;;0.10;0.10;;;12.60;78.30;;;;;;4867392;29;20021;-76
2024/03/14 07:38:58;;;;;;;0.10;0.10;;;12.30;78.40;;;;;;4861156;29;20398;-76
2024/03/14 07:41:25;;;;;;;0.10;0.10;;;11.90;79.40;;;;;;4850917;29;20040;-76
2024/03/14 07:43:54;;;;;;;0.10;0.10;;;11.70;79.80;;;;;;4850428;29;20554;-75
2024/03/14 07:46:20;;;;;;;0.10;0.10;;;11.40;80.50;;;;;;4848971;29;20030;-75
2024/03/14 07:48:53;;;;;;;0.10;0.10;;;11.30;81.10;;;;;;4849333;29;20070;-75
2024/03/14 07:51:19;;;;;;;0.10;0.10;;;11.30;81.40;;;;;;4858424;29;20028;-75
2024/03/14 07:53:46;;;;;;;0.10;0.10;;;11.20;81.50;;;;;;4867148;29;20045;-74
2024/03/14 07:56:13;;;;;;;0.10;0.10;;;11.30;81.60;;;;;;4859323;29;20025;-75
2024/03/14 07:58:42;;;;;;;0.10;0.10;;;11.30;81.40;;;;;;4848693;29;20026;-75
2024/03/14 08:01:10;;;;;;;0.10;0.10;;;11.50;81.40;;;;;;4848667;29;20033;-75
2024/03/14 08:03:39;;;;;;;0.10;0.10;;;11.50;81.20;;;;;;4848210;29;20025;-75
2024/03/14 08:06:08;;;;;;;0.10;0.10;;;11.50;81.30;;;;;;4860174;29;20045;-75
2024/03/14 08:08:34;;;;;;;0.10;0.10;;;11.50;81.10;;;;;;4866231;29;20025;-75
2024/03/14 08:11:03;;;;;;;0.10;0.10;;;11.70;81.30;;;;;;4867076;29;20158;-75
2024/03/14 08:13:31;;;;;;;0.10;0.10;;;11.80;81.10;;;;;;4856650;29;20018;-75
2024/03/14 08:16:21;;;;;;;0.10;0.10;;;12.00;80.50;;;;;;4848485;29;20057;-75
2024/03/14 08:18:51;;;;;;;0.10;0.10;;;12.10;80.50;;;;;;4842910;29;20515;-76
2024/03/14 08:21:17;;;;;;;0.10;0.10;;;12.20;80.30;;;;;;4848369;29;20132;-75
2024/03/14 08:23:47;;;;;;;0.20;0.20;;;12.30;79.70;;;;;;4831574;29;20061;-76
2024/03/14 08:26:13;;;;;;;0.20;0.20;;;12.60;79.50;;;;;;4831465;29;20392;-77
2024/03/14 08:28:41;;;;;;;0.10;0.10;;;13.00;78.50;;;;;;4840682;29;20109;-76
2024/03/14 08:31:15;;;;;;;0.10;0.10;;;13.00;78.00;;;;;;4848215;29;20050;-77
2024/03/14 08:33:44;;;;;;;0.10;0.10;;;12.90;78.30;;;;;;4847692;29;20101;-76
2024/03/14 08:36:09;;;;;;;0.10;0.10;;;12.80;78.30;;;;;;4843872;29;20033;-76
2024/03/14 08:38:35;;;;;;;0.10;0.10;;;12.70;78.80;;;;;;4865307;29;20029;-76
2024/03/14 08:41:03;;;;;;;0.10;0.10;;;12.60;79.20;;;;;;4864968;29;20030;-76
2024/03/14 08:43:30;;;;;;;0.10;0.10;;;12.50;79.50;;;;;;4847858;29;20105;-76
2024/03/14 08:45:56;;;;;;;0.10;0.10;;;12.50;79.90;;;;;;4831095;29;20458;-76
2024/03/14 08:48:22;;;;;;;0.10;0.10;;;12.50;79.70;;;;;;4849099;29;20075;-77
2024/03/14 08:50:49;;;;;;;0.20;0.20;;;12.60;80.30;;;;;;4866285;29;20026;-76
2024/03/14 08:53:15;;;;;;;0.20;0.20;;;12.80;80.00;;;;;;4866042;29;20029;-77
2024/03/14 08:55:52;;;;;;;0.10;0.10;;;13.10;79.50;;;;;;4861292;29;20030;-77
2024/03/14 08:58:18;;;;;;;0.10;0.10;;;13.30;78.50;;;;;;4846335;29;20033;-76
2024/03/14 09:00:44;;;;;;;0.10;0.10;;;13.30;78.30;;;;;;4847625;29;20026;-77
2024/03/14 09:03:09;;;;;;;0.10;0.10;;;13.30;78.40;;;;;;4847695;29;20036;-76
2024/03/14 09:05:36;;;;;;;0.20;0.20;;;13.30;78.10;;;;;;4852766;29;20058;-76
2024/03/14 09:08:03;;;;;;;0.10;0.10;;;13.30;78.00;;;;;;4859926;29;20057;-77
2024/03/14 09:10:33;;;;;;;0.10;0.10;;;13.40;78.10;;;;;;4846002;29;20057;-77
2024/03/14 09:12:59;;;;;;;0.20;0.20;;;13.40;78.60;;;;;;4847244;29;20026;-76
2024/03/14 09:15:25;;;;;;;0.20;0.20;;;13.60;78.00;;;;;;4846899;29;20038;-76
2024/03/14 09:17:51;;;;;;;0.10;0.10;;;13.60;76.90;;;;;;4846075;29;20509;-76
2024/03/14 09:20:19;;;;;;;0.10;0.10;;;13.70;77.50;;;;;;4847284;29;20127;-76
2024/03/14 09:22:46;;;;;;;0.10;0.10;;;13.80;77.60;;;;;;4843543;29;20030;-76
2024/03/14 09:25:15;;;;;;;0.10;0.10;;;13.90;76.90;;;;;;4830550;29;20036;-76
2024/03/14 09:27:42;;;;;;;0.20;0.20;;;13.80;76.90;;;;;;4847238;29;20068;-76
2024/03/14 09:30:11;;;;;;;0.10;0.10;;;13.80;77.30;;;;;;4846928;29;20033;-77
2024/03/14 09:32:40;;;;;;;0.20;0.20;;;13.90;77.30;;;;;;4846734;29;20121;-76
2024/03/14 09:35:13;;;;;;;0.20;0.20;;;14.00;77.10;;;;;;4850817;29;20029;-76
2024/03/14 09:37:39;;;;;;;0.20;0.20;;;14.20;76.90;;;;;;4865383;29;20040;-76
2024/03/14 09:40:12;;;;;;;0.20;0.20;;;14.40;76.60;;;;;;4861910;29;20045;-76
2024/03/14 09:42:39;;;;;;;0.20;0.20;;;14.50;76.10;;;;;;4848654;29;20455;-76
2024/03/14 09:45:12;;;;;;;0.10;0.10;;;14.50;75.60;;;;;;4865132;29;20789;-76
2024/03/14 09:47:39;;;;;;;0.10;0.10;;;14.60;75.50;;;;;;4864791;29;20025;-76
2024/03/14 09:50:06;;;;;;;0.10;0.10;;;14.60;75.60;;;;;;4844871;29;20049;-76
2024/03/14 09:52:35;;;;;;;0.10;0.10;;;14.60;75.40;;;;;;4847082;29;20466;-76
2024/03/14 09:55:02;;;;;;;0.10;0.10;;;14.60;75.60;;;;;;4830015;29;20546;-76
2024/03/14 09:57:31;;;;;;;0.20;0.20;;;14.70;75.90;;;;;;4848171;29;20105;-76
2024/03/14 09:59:57;;;;;;;0.10;0.10;;;14.70;75.70;;;;;;4848614;29;20029;-76
2024/03/14 10:02:26;;;;;;;0.10;0.10;;;14.80;75.30;;;;;;4865086;29;20022;-76
2024/03/14 10:04:55;;;;;;;0.10;0.10;;;14.80;75.40;;;;;;4848276;29;20073;-76
2024/03/14 10:07:21;;;;;;;0.20;0.20;;;14.80;75.10;;;;;;4848108;29;20033;-76
2024/03/14 10:09:47;;;;;;;0.20;0.20;;;14.80;75.40;;;;;;4862205;29;20054;-76
2024/03/14 10:12:14;;;;;;;0.10;0.10;;;14.80;74.90;;;;;;4845532;29;20459;-76
2024/03/14 10:14:41;;;;;;;0.20;0.20;;;15.00;75.40;;;;;;4846171;29;20037;-76
2024/03/14 10:17:07;;;;;;;0.10;0.10;;;15.30;75.30;;;;;;4846153;29;20044;-76
2024/03/14 10:19:35;;;;;;;0.30;0.30;;;15.50;74.50;;;;;;4830198;29;20037;-76
2024/03/14 10:22:01;;;;;;;0.10;0.10;;;15.70;73.60;;;;;;4846106;29;20032;-76
2024/03/14 10:24:27;;;;;;;0.20;0.20;;;15.80;73.10;;;;;;4845922;29;20042;-76
2024/03/14 10:26:55;;;;;;;0.10;0.10;;;16.00;73.20;;;;;;4845950;29;20030;-76
2024/03/14 10:29:22;;;;;;;0.10;0.10;;;16.10;73.20;;;;;;4845774;29;20037;-75
2024/03/14 10:31:49;;;;;;;0.20;0.20;;;16.20;73.10;;;;;;4845258;29;20054;-76
2024/03/14 10:34:15;;;;;;;0.10;0.10;;;16.30;71.80;;;;;;4847526;29;20124;-75
2024/03/14 10:36:43;;;;;;;0.10;0.10;;;16.30;72.40;;;;;;4864217;29;20057;-75
2024/03/14 10:39:16;;;;;;;0.10;0.10;;;16.50;71.60;;;;;;4846743;29;20037;-75
2024/03/14 10:41:44;;;;;;;0.10;0.10;;;16.50;71.60;;;;;;4864181;29;20058;-75
2024/03/14 10:44:19;;;;;;;0.20;0.20;;;16.70;70.90;;;;;;4854613;29;20392;-75
2024/03/14 10:46:50;;;;;;;0.10;0.10;;;16.80;70.80;;;;;;4845934;29;20109;-75
2024/03/14 10:49:19;;;;;;;0.10;0.10;;;16.90;70.30;;;;;;4843415;29;20034;-75
2024/03/14 10:51:49;;;;;;;0.10;0.10;;;16.80;70.10;;;;;;4862176;29;20034;-75
2024/03/14 10:54:18;;;;;;;0.10;0.10;;;17.00;70.30;;;;;;4864093;29;20112;-75
2024/03/14 10:56:46;;;;;;;0.10;0.10;;;17.20;69.20;;;;;;4847208;29;20030;-75
2024/03/14 10:59:16;;;;;;;0.20;0.20;;;17.10;68.60;;;;;;4847806;29;20077;-75
2024/03/14 11:01:50;;;;;;;0.20;0.20;;;17.20;67.80;;;;;;4858256;29;20026;-75
2024/03/14 11:04:17;;;;;;;0.10;0.10;;;17.30;67.60;;;;;;4845839;29;20402;-75
2024/03/14 11:06:44;;;;;;;0.10;0.10;;;17.40;67.90;;;;;;4847423;29;20029;-74
2024/03/14 11:09:13;;;;;;;0.10;0.10;;;17.60;67.60;;;;;;4858600;29;20093;-75
2024/03/14 11:11:45;;;;;;;0.10;0.10;;;17.60;66.80;;;;;;4829371;29;20439;-75
2024/03/14 11:14:12;;;;;;;0.10;0.10;;;17.60;67.00;;;;;;4841747;29;20034;-75
2024/03/14 11:16:48;;;;;;;0.10;0.10;;;17.50;66.80;;;;;;4851730;29;20040;-76
2024/03/14 11:19:20;;;;;;;0.10;0.10;;;17.50;67.20;;;;;;4849481;29;20040;-75
2024/03/14 11:21:48;;;;;;;0.10;0.10;;;17.50;67.40;;;;;;4845503;29;20513;-75
2024/03/14 11:24:17;;;;;;;0.10;0.10;;;17.50;66.80;;;;;;4845000;29;20050;-75
2024/03/14 11:26:46;;;;;;;0.10;0.10;;;17.30;66.10;;;;;;4844261;29;20030;-75
2024/03/14 11:29:17;;;;;;;0.10;0.10;;;17.30;65.70;;;;;;4845079;29;20367;-75
2024/03/14 11:31:47;;;;;;;0.08;0.08;;;17.30;65.80;;;;;;4856170;29;20069;-76
2024/03/14 11:34:17;;;;;;;0.10;0.10;;;17.30;65.90;;;;;;4864028;29;20061;-75
2024/03/14 11:36:50;;;;;;;0.10;0.10;;;17.30;65.60;;;;;;4843028;29;20125;-75
2024/03/14 11:39:26;;;;;;;0.10;0.10;;;17.30;66.10;;;;;;4853810;29;20025;-75
2024/03/14 11:42:11;;;;;;;0.10;0.10;;;17.40;66.60;;;;;;4846708;29;20057;-75
2024/03/14 11:44:41;;;;;;;0.10;0.10;;;17.50;65.30;;;;;;4845682;29;20034;-75
2024/03/14 11:47:07;;;;;;;0.10;0.10;;;17.60;66.10;;;;;;4845079;29;20038;-75
2024/03/14 11:49:35;;;;;;;0.10;0.10;;;17.50;64.30;;;;;;4841687;29;20089;-75
2024/03/14 11:52:00;;;;;;;0.10;0.10;;;17.40;64.10;;;;;;4847127;29;20022;-76
2024/03/14 11:54:27;;;;;;;0.10;0.10;;;17.50;65.30;;;;;;4842869;29;20036;-76
2024/03/14 11:56:55;;;;;;;0.10;0.10;;;17.70;64.80;;;;;;4845157;29;20030;-77
2024/03/14 11:59:24;;;;;;;0.10;0.10;;;17.80;64.50;;;;;;4844790;29;20042;-75
2024/03/14 12:01:54;;;;;;;0.10;0.10;;;17.90;64.20;;;;;;4863145;29;20064;-75
2024/03/14 12:04:19;;;;;;;0.10;0.10;;;18.00;64.30;;;;;;4847205;29;20034;-77
2024/03/14 12:06:47;;;;;;;0.10;0.10;;;18.10;64.70;;;;;;4846834;29;20662;-82
2024/03/14 12:09:23;;;;;;;0.10;0.10;;;18.20;62.90;;;;;;4854786;29;20026;-79
2024/03/14 12:11:49;;;;;;;0.10;0.10;;;18.10;62.90;;;;;;4845572;29;20027;-78
2024/03/14 12:14:16;;;;;;;0.10;0.10;;;18.10;63.30;;;;;;4865532;29;20036;-78
2024/03/14 12:16:46;;;;;;;0.10;0.10;;;18.10;62.40;;;;;;4848489;29;20550;-77
2024/03/14 12:19:16;;;;;;;0.10;0.10;;;18.20;62.90;;;;;;4848539;29;20048;-78
2024/03/14 12:22:02;;;;;;;0.10;0.10;;;18.20;63.60;;;;;;4834496;29;20349;-77
2024/03/14 12:24:27;;;;;;;0.10;0.10;;;18.30;63.60;;;;;;4847627;29;20042;-79
2024/03/14 12:26:57;;;;;;;0.10;0.10;;;18.30;63.00;;;;;;4831869;29;20045;-79
2024/03/14 12:29:27;;;;;;;0.10;0.10;;;18.30;62.40;;;;;;4847806;29;20030;-76
2024/03/14 12:31:55;;;;;;;0.10;0.10;;;18.40;63.10;;;;;;4848285;29;20054;-80
2024/03/14 12:34:22;;;;;;;0.10;0.10;;;18.60;63.70;;;;;;4831550;29;20497;-79
2024/03/14 12:36:51;;;;;;;0.10;0.10;;;18.70;62.50;;;;;;4865123;29;20120;-77
2024/03/14 12:39:17;;;;;;;0.10;0.10;;;18.70;62.00;;;;;;4858273;29;20038;-78
2024/03/14 12:41:44;;;;;;;0.10;0.10;;;18.70;61.10;;;;;;4849899;29;20434;-82
2024/03/14 12:44:10;;;;;;;0.10;0.10;;;18.60;60.20;;;;;;4849843;29;20029;-75
2024/03/14 12:46:38;;;;;;;0.10;0.10;;;18.50;58.40;;;;;;4848406;29;20071;-77
2024/03/14 12:49:09;;;;;;;0.10;0.10;;;18.60;60.40;;;;;;4847764;29;20038;-76
2024/03/14 12:51:35;;;;;;;0.00;0.00;;;18.70;60.00;;;;;;4846531;29;20061;-76
2024/03/14 12:54:01;;;;;;;0.10;0.10;;;18.60;59.30;;;;;;4863337;29;20022;-77
2024/03/14 12:56:28;;;;;;;0.10;0.10;;;18.60;59.20;;;;;;4866259;29;20128;-76
2024/03/14 12:58:55;;;;;;;0.10;0.10;;;18.80;60.10;;;;;;4865383;29;20033;-77
2024/03/14 13:01:30;;;;;;;0.10;0.10;;;18.80;59.20;;;;;;4830940;29;20025;-77
2024/03/14 13:04:05;;;;;;;0.10;0.10;;;18.80;58.90;;;;;;4847605;29;20108;-77
2024/03/14 13:06:32;;;;;;;0.10;0.10;;;18.80;59.50;;;;;;4862307;29;20034;-77
2024/03/14 13:09:20;;;;;;;0.10;0.10;;;18.80;59.50;;;;;;4845298;29;20074;-77
2024/03/14 13:12:19;;;;;;;0.00;0.00;;;18.80;58.00;;;;;;4847515;29;20025;-77
2024/03/14 13:15:01;;;;;;;0.10;0.10;;;18.80;58.30;;;;;;4846095;29;20508;-77
2024/03/14 13:17:27;;;;;;;0.00;0.00;;;18.80;59.10;;;;;;4847293;29;20483;-77
2024/03/14 13:19:56;;;;;;;0.10;0.10;;;18.70;58.30;;;;;;4847481;29;20026;-76
2024/03/14 13:22:23;;;;;;;0.08;0.08;;;18.70;58.60;;;;;;4847110;29;20034;-77
2024/03/14 13:24:49;;;;;;;0.10;0.10;;;18.70;59.70;;;;;;4846982;29;20073;-76
2024/03/14 13:27:16;;;;;;;0.10;0.10;;;18.80;58.90;;;;;;4846994;29;20073;-77
2024/03/14 13:29:41;;;;;;;0.10;0.10;;;18.80;59.60;;;;;;4847201;29;20022;-77
2024/03/14 13:32:08;;;;;;;0.10;0.10;;;18.80;59.40;;;;;;4846964;29;20117;-77
2024/03/14 13:34:34;;;;;;;0.00;0.00;;;18.80;58.50;;;;;;4846483;29;20026;-76
2024/03/14 13:37:00;;;;;;;0.10;0.10;;;18.80;58.50;;;;;;4830532;29;20030;-77
2024/03/14 13:39:26;;;;;;;0.10;0.10;;;18.80;57.70;;;;;;4864728;29;20456;-81
2024/03/14 13:41:52;;;;;;;0.00;0.00;;;18.80;57.10;;;;;;4865064;29;20025;-78
2024/03/14 13:44:19;;;;;;;0.10;0.10;;;18.80;58.00;;;;;;4850370;29;20086;-78
2024/03/14 13:46:46;;;;;;;0.10;0.10;;;18.90;56.90;;;;;;4846564;29;20041;-78
2024/03/14 13:49:14;;;;;;;0.10;0.10;;;18.90;57.40;;;;;;4830019;29;20030;-78
2024/03/14 13:51:40;;;;;;;0.00;0.00;;;18.90;58.00;;;;;;4846692;29;20026;-79
2024/03/14 13:54:06;;;;;;;0.10;0.10;;;19.00;58.20;;;;;;4846336;29;20026;-76
2024/03/14 13:56:32;;;;;;;0.00;0.00;;;19.10;58.10;;;;;;4846601;29;20037;-78
2024/03/14 13:59:01;;;;;;;0.00;0.00;;;19.20;58.20;;;;;;4846537;29;20137;-78
2024/03/14 14:01:27;;;;;;;0.08;0.08;;;19.10;57.10;;;;;;4846479;29;20053;-79
2024/03/14 14:03:54;;;;;;;0.00;0.00;;;19.20;57.20;;;;;;4846537;29;20041;-78
2024/03/14 14:06:23;;;;;;;0.03;0.03;;;19.10;57.00;;;;;;4860321;29;20026;-78
2024/03/14 14:08:49;;;;;;;0.00;0.00;;;19.20;56.90;;;;;;4830098;29;20022;-79
2024/03/14 14:11:16;;;;;;;0.10;0.10;;;19.10;57.10;;;;;;4843976;29;20044;-80
2024/03/14 14:13:45;;;;;;;0.00;0.00;;;19.10;57.30;;;;;;4846286;29;20104;-80
2024/03/14 14:16:18;;;;;;;0.05;0.05;;;19.20;58.00;;;;;;4846807;29;20109;-81
2024/03/14 14:18:44;;;;;;;0.08;0.08;;;19.20;56.60;;;;;;4847114;29;20026;-80
2024/03/14 14:21:11;;;;;;;0.00;0.00;;;19.20;57.00;;;;;;4846884;29;20117;-80
2024/03/14 14:23:36;;;;;;;0.00;0.00;;;19.20;56.40;;;;;;4832643;29;20026;-80
2024/03/14 14:26:04;;;;;;;0.05;0.05;;;19.30;57.00;;;;;;4846040;29;20372;-80
2024/03/14 14:28:30;;;;;;;0.03;0.03;;;19.20;56.50;;;;;;4830019;29;20025;-79
2024/03/14 14:30:56;;;;;;;0.00;0.00;;;19.30;56.50;;;;;;4845971;29;20046;-80
2024/03/14 14:33:22;;;;;;;0.00;0.00;;;19.30;56.20;;;;;;4846542;29;20494;-80
2024/03/14 14:35:49;;;;;;;0.10;0.10;;;19.30;55.80;;;;;;4855797;29;20044;-80
2024/03/14 14:38:15;;;;;;;0.10;0.10;;;19.30;56.10;;;;;;4848437;29;20033;-80
2024/03/14 14:40:42;;;;;;;0.00;0.00;;;19.30;56.60;;;;;;4855264;29;20495;-80
2024/03/14 14:43:08;;;;;;;0.08;0.08;;;19.30;56.60;;;;;;4864315;29;20593;-79
2024/03/14 14:45:33;;;;;;;0.00;0.00;;;19.20;57.60;;;;;;4864340;29;20030;-80
2024/03/14 14:47:59;;;;;;;0.10;0.10;;;19.20;58.50;;;;;;4859211;29;20044;-80
2024/03/14 14:50:27;;;;;;;0.10;0.10;;;19.00;59.50;;;;;;4845535;29;20498;-80
2024/03/14 14:52:54;;;;;;;0.10;0.10;;;19.00;60.50;;;;;;4845340;29;20503;-81
2024/03/14 14:55:19;;;;;;;0.00;0.00;;;19.00;61.00;;;;;;4848513;29;20041;-80
2024/03/14 14:57:46;;;;;;;0.00;0.00;;;19.00;61.20;;;;;;4864233;29;20501;-81
2024/03/14 15:00:15;;;;;;;0.10;0.10;;;18.80;62.30;;;;;;4858507;29;20443;-80
2024/03/14 15:02:41;;;;;;;0.10;0.10;;;18.80;62.80;;;;;;4844723;29;20037;-81
2024/03/14 15:05:08;;;;;;;0.10;0.10;;;18.70;62.80;;;;;;4849359;29;20036;-81
2024/03/14 15:07:35;;;;;;;0.10;0.10;;;18.70;63.40;;;;;;4847385;29;20033;-80
2024/03/14 15:10:03;;;;;;;0.10;0.10;;;18.80;63.20;;;;;;4863877;29;20029;-80
2024/03/14 15:12:29;;;;;;;0.10;0.10;;;19.10;62.70;;;;;;4864223;29;20026;-81
2024/03/14 15:14:56;;;;;;;0.00;0.00;;;19.40;62.90;;;;;;4851402;29;20034;-80
2024/03/14 15:17:22;;;;;;;0.10;0.10;;;19.30;62.10;;;;;;4845492;29;20034;-81
2024/03/14 15:19:47;;;;;;;0.10;0.10;;;19.20;62.70;;;;;;4845454;29;20034;-80
2024/03/14 15:22:15;;;;;;;0.00;0.00;;;19.00;63.50;;;;;;4846147;29;20073;-81
2024/03/14 15:24:41;;;;;;;0.10;0.10;;;18.90;64.00;;;;;;4845994;29;20064;-80
2024/03/14 15:27:07;;;;;;;0.00;0.00;;;18.80;64.30;;;;;;4845782;29;20097;-80
2024/03/14 15:29:39;;;;;;;0.00;0.00;;;18.60;64.10;;;;;;4850770;29;20036;-82
2024/03/14 15:32:06;;;;;;;0.10;0.10;;;18.40;64.50;;;;;;4858896;29;20054;-81
2024/03/14 15:34:33;;;;;;;0.10;0.10;;;18.30;64.80;;;;;;4829062;29;20561;-80
2024/03/14 15:37:02;;;;;;;0.10;0.10;;;18.20;65.40;;;;;;4847574;29;20026;-81
2024/03/14 15:39:29;;;;;;;0.10;0.10;;;18.20;65.50;;;;;;4848017;29;20081;-81
2024/03/14 15:42:01;;;;;;;0.10;0.10;;;18.20;66.00;;;;;;4853437;29;20063;-80
2024/03/14 15:44:31;;;;;;;0.03;0.03;;;18.20;66.50;;;;;;4845819;29;20101;-81
2024/03/14 15:46:57;;;;;;;0.10;0.10;;;18.20;67.10;;;;;;4854992;29;20063;-80
2024/03/14 15:49:24;;;;;;;0.10;0.10;;;18.10;67.50;;;;;;4863294;29;20478;-81
2024/03/14 15:51:50;;;;;;;0.00;0.00;;;18.10;67.60;;;;;;4849069;29;20034;-81
2024/03/14 15:54:16;;;;;;;0.05;0.05;;;18.00;68.10;;;;;;4848509;29;20186;-81
2024/03/14 15:56:42;;;;;;;0.00;0.00;;;17.90;68.30;;;;;;4848846;29;20026;-81
2024/03/14 15:59:08;;;;;;;0.00;0.00;;;17.80;68.80;;;;;;4848312;29;20033;-81
2024/03/14 16:01:34;;;;;;;0.00;0.00;;;17.60;69.30;;;;;;4857768;29;20445;-82
2024/03/14 16:04:06;;;;;;;0.00;0.00;;;17.50;69.90;;;;;;4850535;29;20085;-81
2024/03/14 16:06:35;;;;;;;0.00;0.00;;;17.50;70.10;;;;;;4849802;29;20364;-80
2024/03/14 16:09:02;;;;;;;0.00;0.00;;;17.40;70.30;;;;;;4867157;29;20494;-81
2024/03/14 16:11:27;;;;;;;0.10;0.10;;;17.30;70.60;;;;;;4853044;29;20025;-80
2024/03/14 16:13:54;;;;;;;0.00;0.00;;;17.30;70.90;;;;;;4850018;29;20037;-81
2024/03/14 16:16:22;;;;;;;0.00;0.00;;;17.20;71.40;;;;;;4866794;29;20044;-81
2024/03/14 16:18:51;;;;;;;0.00;0.00;;;17.20;71.50;;;;;;4851143;29;20030;-81
2024/03/14 16:21:19;;;;;;;0.00;0.00;;;17.00;71.80;;;;;;4847463;29;20622;-81
2024/03/14 16:23:46;;;;;;;0.10;0.10;;;16.90;72.30;;;;;;4845383;29;20156;-84
2024/03/14 16:26:18;;;;;;;0.00;0.00;;;16.80;72.60;;;;;;4842630;29;20034;-82
2024/03/14 16:28:46;;;;;;;0.00;0.00;;;16.70;73.10;;;;;;4848244;29;20052;-82
2024/03/14 16:31:15;;;;;;;0.00;0.00;;;16.70;73.40;;;;;;4846330;29;20085;-82
2024/03/14 16:33:47;;;;;;;0.00;0.00;;;16.60;73.70;;;;;;4847210;29;20368;-82
2024/03/14 16:36:14;;;;;;;0.00;0.00;;;16.60;74.00;;;;;;4847171;29;20029;-81
2024/03/14 16:38:41;;;;;;;0.00;0.00;;;16.50;74.50;;;;;;4845710;29;20033;-80
2024/03/14 16:41:07;;;;;;;0.00;0.00;;;16.50;74.90;;;;;;4843810;29;20514;-81
2024/03/14 16:43:33;;;;;;;0.10;0.10;;;16.50;74.90;;;;;;4845829;29;20094;-80
2024/03/14 16:46:00;;;;;;;0.00;0.00;;;16.60;74.90;;;;;;4848455;29;20045;-81
2024/03/14 16:48:26;;;;;;;0.10;0.10;;;16.60;75.00;;;;;;4847748;29;20022;-81
2024/03/14 16:50:52;;;;;;;0.10;0.10;;;16.60;75.10;;;;;;4846353;29;20118;-81
2024/03/14 16:53:19;;;;;;;0.10;0.10;;;16.70;75.00;;;;;;4845882;29;20069;-81
2024/03/14 16:55:45;;;;;;;0.10;0.10;;;16.70;75.10;;;;;;4843422;29;20114;-82
2024/03/14 16:58:14;;;;;;;0.10;0.10;;;16.70;75.00;;;;;;4844599;29;20246;-80
2024/03/14 17:00:41;;;;;;;0.00;0.00;;;16.70;75.10;;;;;;4845959;29;20106;-80
2024/03/14 17:03:08;;;;;;;0.00;0.00;;;16.60;75.20;;;;;;4845445;29;20470;-81
2024/03/14 17:05:34;;;;;;;0.00;0.00;;;16.50;75.10;;;;;;4843753;29;20098;-82
2024/03/14 17:08:00;;;;;;;0.00;0.00;;;16.50;74.70;;;;;;4847412;29;20022;-82
2024/03/14 17:10:26;;;;;;;0.10;0.10;;;16.30;74.90;;;;;;4844170;29;20117;-81
2024/03/14 17:12:52;;;;;;;0.00;0.00;;;16.40;75.10;;;;;;4844022;29;20030;-82
2024/03/14 17:15:18;;;;;;;0.10;0.10;;;16.30;74.90;;;;;;4842065;29;20501;-82
2024/03/14 17:17:44;;;;;;;0.00;0.00;;;16.20;75.00;;;;;;4843453;29;20030;-79
2024/03/14 17:20:12;;;;;;;0.00;0.00;;;16.20;75.10;;;;;;4842818;29;20034;-78
2024/03/14 17:22:41;;;;;;;0.00;0.00;;;16.20;75.30;;;;;;4843107;29;20026;-79
2024/03/14 17:25:08;;;;;;;0.00;0.00;;;16.10;75.60;;;;;;4846012;29;20030;-83
2024/03/14 17:27:34;;;;;;;0.00;0.00;;;16.10;75.70;;;;;;4843050;29;20061;-82
2024/03/14 17:30:05;;;;;;;0.10;0.10;;;16.00;75.70;;;;;;4846348;29;20034;-84
2024/03/14 17:32:31;;;;;;;0.00;0.00;;;16.10;75.90;;;;;;4839136;29;20065;-77
2024/03/14 17:34:57;;;;;;;0.00;0.00;;;16.10;76.10;;;;;;4845100;29;20034;-81
2024/03/14 17:37:23;;;;;;;0.00;0.00;;;16.00;76.10;;;;;;4840551;29;20037;-81
2024/03/14 17:39:48;;;;;;;0.00;0.00;;;16.10;76.20;;;;;;4842396;29;20091;-81
2024/03/14 17:42:14;;;;;;;0.10;0.10;;;16.00;76.30;;;;;;4843882;29;20045;-82
2024/03/14 17:44:40;;;;;;;0.00;0.00;;;16.00;76.40;;;;;;4846248;29;20093;-82
2024/03/14 17:47:07;;;;;;;0.03;0.03;;;15.90;76.60;;;;;;4846435;29;20029;-81
2024/03/14 17:49:34;;;;;;;0.10;0.10;;;16.00;76.60;;;;;;4842502;29;20030;-82
2024/03/14 17:51:59;;;;;;;0.10;0.10;;;15.80;76.80;;;;;;4845986;29;20029;-83
2024/03/14 17:54:25;;;;;;;0.00;0.00;;;15.80;76.90;;;;;;4843131;29;20030;-81
2024/03/14 17:56:51;;;;;;;0.10;0.10;;;15.80;77.10;;;;;;4844420;29;20030;-82
2024/03/14 17:59:18;;;;;;;0.00;0.00;;;15.80;77.10;;;;;;4844157;29;20042;-82
2024/03/14 18:01:43;;;;;;;0.10;0.10;;;15.80;77.10;;;;;;4843631;29;20026;-82
2024/03/14 18:04:12;;;;;;;0.08;0.08;;;15.80;77.10;;;;;;4844135;29;20085;-82
2024/03/14 18:06:42;;;;;;;0.10;0.10;;;15.80;77.40;;;;;;4844874;29;20034;-82
2024/03/14 18:09:10;;;;;;;0.10;0.10;;;15.70;77.40;;;;;;4845810;29;20026;-82
2024/03/14 18:11:39;;;;;;;0.00;0.00;;;15.70;77.70;;;;;;4844416;29;20508;-82
2024/03/14 18:14:05;;;;;;;0.00;0.00;;;15.60;77.90;;;;;;4840039;29;20018;-83
2024/03/14 18:16:33;;;;;;;0.10;0.10;;;15.60;78.00;;;;;;4844325;29;20029;-82
2024/03/14 18:19:02;;;;;;;0.10;0.10;;;15.50;78.30;;;;;;4845500;29;20086;-82
2024/03/14 18:21:27;;;;;;;0.10;0.10;;;15.50;78.40;;;;;;4842422;29;20399;-82